sensor_id;sensor_type;location;lat;lon;timestamp;P1;durP1;ratioP1;P2;durP2;ratioP2
61570;SDS011;47463;49.884;10.010;2023-12-20T00:00:00;25.7;;;12.8;;
61570;SDS011;47463;49.884;10.010;2023-12-20T00:05:00;23.9;;;11.4;;
61570;SDS011;47463;49.884;10.010;2023-12-20T00:10:00;20.9;;;10.6;;
61570;SDS011;47463;49.884;10.010;2023-12-20T00:15:00;19.3;;;9.8;;
61570;SDS011;47463;49.884;10.010;2023-12-20T00:20:00;19.3;;;9.8;;
61570;SDS011;47463;49.884;10.010;2023-12-20T00:25:00;17;;;9.8;;
61570;SDS011;47463;49.884;10.010;2023-12-20T00:30:00;14.2;;;8.6;;
61570;SDS011;47463;49.884;10.010;2023-12-20T00:35:00;13.4;;;7.2;;
61570;SDS011;47463;49.884;10.010;2023-12-20T00:40:00;11.9;;;6.4;;
61570;SDS011;47463;49.884;10.010;2023-12-20T00:45:00;9;;;5.4;;
61570;SDS011;47463;49.884;10.010;2023-12-20T00:50:00;9;;;5.4;;
61570;SDS011;47463;49.884;10.010;2023-12-20T00:55:00;7.2;;;3.8;;
61570;SDS011;47463;49.884;10.010;2023-12-20T01:00:00;5.3;;;3.3;;
61570;SDS011;47463;49.884;10.010;2023-12-20T01:05:00;2.9;;;2.1;;
61570;SDS011;47463;49.884;10.010;2023-12-20T01:10:00;3.7;;;2.4;;
61570;SDS011;47463;49.884;10.010;2023-12-20T01:15:00;2.5;;;1.8;;
61570;SDS011;47463;49.884;10.010;2023-12-20T01:20:00;2.5;;;1.8;;
61570;SDS011;47463;49.884;10.010;2023-12-20T01:25:00;3.2;;;1.7;;
61570;SDS011;47463;49.884;10.010;2023-12-20T01:30:00;2.6;;;1.7;;
61570;SDS011;47463;49.884;10.010;2023-12-20T01:35:00;2.8;;;1.6;;
61570;SDS011;47463;49.884;10.010;2023-12-20T01:40:00;2;;;1.4;;
61570;SDS011;47463;49.884;10.010;2023-12-20T01:45:00;1.9;;;1.4;;
61570;SDS011;47463;49.884;10.010;2023-12-20T01:50:00;1.9;;;1.4;;
61570;SDS011;47463;49.884;10.010;2023-12-20T01:55:00;1.8;;;1.3;;
61570;SDS011;47463;49.884;10.010;2023-12-20T02:00:00;1.8;;;1.1;;
61570;SDS011;47463;49.884;10.010;2023-12-20T02:05:00;1.6;;;1.3;;
61570;SDS011;47463;49.884;10.010;2023-12-20T02:10:00;1.8;;;1.1;;
61570;SDS011;47463;49.884;10.010;2023-12-20T02:15:00;3;;;1.4;;
61570;SDS011;47463;49.884;10.010;2023-12-20T02:20:00;3;;;1.4;;
61570;SDS011;47463;49.884;10.010;2023-12-20T02:25:00;2.2;;;1.1;;
61570;SDS011;47463;49.884;10.010;2023-12-20T02:30:00;1.7;;;1.2;;
61570;SDS011;47463;49.884;10.010;2023-12-20T02:35:00;2.2;;;1.3;;
61570;SDS011;47463;49.884;10.010;2023-12-20T02:40:00;2.1;;;1.2;;
61570;SDS011;47463;49.884;10.010;2023-12-20T02:45:00;2;;;1.4;;
61570;SDS011;47463;49.884;10.010;2023-12-20T02:50:00;2;;;1.4;;
61570;SDS011;47463;49.884;10.010;2023-12-20T02:55:00;2.4;;;1.1;;
61570;SDS011;47463;49.884;10.010;2023-12-20T03:00:00;1.9;;;1.1;;
61570;SDS011;47463;49.884;10.010;2023-12-20T03:05:00;1.6;;;1.1;;
61570;SDS011;47463;49.884;10.010;2023-12-20T03:10:00;2.1;;;1.1;;
61570;SDS011;47463;49.884;10.010;2023-12-20T03:15:00;1.7;;;1.2;;
61570;SDS011;47463;49.884;10.010;2023-12-20T03:20:00;1.7;;;1.2;;
61570;SDS011;47463;49.884;10.010;2023-12-20T03:25:00;1.6;;;1.2;;
61570;SDS011;47463;49.884;10.010;2023-12-20T03:30:00;1.7;;;1.1;;
61570;SDS011;47463;49.884;10.010;2023-12-20T03:35:00;2.3;;;1.3;;
61570;SDS011;47463;49.884;10.010;2023-12-20T03:40:00;1.7;;;1.2;;
61570;SDS011;47463;49.884;10.010;2023-12-20T03:45:00;2.6;;;1.3;;
61570;SDS011;47463;49.884;10.010;2023-12-20T03:50:00;2.6;;;1.3;;
61570;SDS011;47463;49.884;10.010;2023-12-20T03:55:00;1.4;;;1.2;;
61570;SDS011;47463;49.884;10.010;2023-12-20T04:00:00;2.2;;;1.3;;
61570;SDS011;47463;49.884;10.010;2023-12-20T04:05:00;1.7;;;1.2;;
61570;SDS011;47463;49.884;10.010;2023-12-20T04:10:00;1.6;;;1.3;;
61570;SDS011;47463;49.884;10.010;2023-12-20T04:15:00;2.2;;;1.4;;
61570;SDS011;47463;49.884;10.010;2023-12-20T04:20:00;2.2;;;1.4;;
61570;SDS011;47463;49.884;10.010;2023-12-20T04:25:00;2;;;1.2;;
61570;SDS011;47463;49.884;10.010;2023-12-20T04:30:00;2.2;;;1.7;;
61570;SDS011;47463;49.884;10.010;2023-12-20T04:35:00;2.6;;;1.8;;
61570;SDS011;47463;49.884;10.010;2023-12-20T04:40:00;4.2;;;1.7;;
61570;SDS011;47463;49.884;10.010;2023-12-20T04:45:00;2.9;;;1.5;;
61570;SDS011;47463;49.884;10.010;2023-12-20T04:50:00;2.9;;;1.5;;
61570;SDS011;47463;49.884;10.010;2023-12-20T04:55:00;2.1;;;1.6;;
61570;SDS011;47463;49.884;10.010;2023-12-20T05:00:00;2.9;;;1.9;;
61570;SDS011;47463;49.884;10.010;2023-12-20T05:05:00;2.2;;;1.7;;
61570;SDS011;47463;49.884;10.010;2023-12-20T05:10:00;3.3;;;2.3;;
61570;SDS011;47463;49.884;10.010;2023-12-20T05:15:00;3;;;2;;
61570;SDS011;47463;49.884;10.010;2023-12-20T05:20:00;3;;;2;;
61570;SDS011;47463;49.884;10.010;2023-12-20T05:25:00;2.4;;;2.1;;
61570;SDS011;47463;49.884;10.010;2023-12-20T05:30:00;2.5;;;2;;
61570;SDS011;47463;49.884;10.010;2023-12-20T05:35:00;3.2;;;2.3;;
61570;SDS011;47463;49.884;10.010;2023-12-20T05:40:00;3.4;;;2.4;;
61570;SDS011;47463;49.884;10.010;2023-12-20T05:45:00;2.9;;;2.5;;
61570;SDS011;47463;49.884;10.010;2023-12-20T05:50:00;2.9;;;2.5;;
61570;SDS011;47463;49.884;10.010;2023-12-20T05:55:00;5.4;;;3;;
61570;SDS011;47463;49.884;10.010;2023-12-20T06:00:00;4.9;;;2.8;;
61570;SDS011;47463;49.884;10.010;2023-12-20T06:05:00;3.3;;;2.7;;
61570;SDS011;47463;49.884;10.010;2023-12-20T06:10:00;3.7;;;2.9;;
61570;SDS011;47463;49.884;10.010;2023-12-20T06:15:00;7.3;;;4.2;;
61570;SDS011;47463;49.884;10.010;2023-12-20T06:20:00;7.3;;;4.2;;
61570;SDS011;47463;49.884;10.010;2023-12-20T06:25:00;5.4;;;3.6;;
61570;SDS011;47463;49.884;10.010;2023-12-20T06:30:00;5.8;;;4;;
61570;SDS011;47463;49.884;10.010;2023-12-20T06:35:00;5.4;;;4;;
61570;SDS011;47463;49.884;10.010;2023-12-20T06:40:00;6.3;;;3.8;;
61570;SDS011;47463;49.884;10.010;2023-12-20T06:45:00;6;;;3.8;;
61570;SDS011;47463;49.884;10.010;2023-12-20T06:50:00;6;;;3.8;;
61570;SDS011;47463;49.884;10.010;2023-12-20T06:55:00;7.8;;;4.2;;
61570;SDS011;47463;49.884;10.010;2023-12-20T07:00:00;5.8;;;4.1;;
61570;SDS011;47463;49.884;10.010;2023-12-20T07:05:00;6.3;;;4.2;;
61570;SDS011;47463;49.884;10.010;2023-12-20T07:10:00;7.2;;;4.9;;
61570;SDS011;47463;49.884;10.010;2023-12-20T07:15:00;11.7;;;5.2;;
61570;SDS011;47463;49.884;10.010;2023-12-20T07:20:00;11.7;;;5.2;;
61570;SDS011;47463;49.884;10.010;2023-12-20T07:25:00;8.7;;;5.3;;
61570;SDS011;47463;49.884;10.010;2023-12-20T07:30:00;8.8;;;5.4;;
61570;SDS011;47463;49.884;10.010;2023-12-20T07:35:00;7.7;;;4.9;;
61570;SDS011;47463;49.884;10.010;2023-12-20T07:40:00;8.1;;;4.2;;
61570;SDS011;47463;49.884;10.010;2023-12-20T07:45:00;7.3;;;3.5;;
61570;SDS011;47463;49.884;10.010;2023-12-20T07:50:00;7.3;;;3.5;;
61570;SDS011;47463;49.884;10.010;2023-12-20T07:55:00;9.7;;;3.6;;
61570;SDS011;47463;49.884;10.010;2023-12-20T08:00:00;5.9;;;2.8;;
61570;SDS011;47463;49.884;10.010;2023-12-20T08:05:00;7.9;;;2.7;;
61570;SDS011;47463;49.884;10.010;2023-12-20T08:10:00;5.4;;;2.2;;
61570;SDS011;47463;49.884;10.010;2023-12-20T08:15:00;6.2;;;2.7;;
61570;SDS011;47463;49.884;10.010;2023-12-20T08:20:00;6.2;;;2.7;;
61570;SDS011;47463;49.884;10.010;2023-12-20T08:25:00;7;;;2;;
61570;SDS011;47463;49.884;10.010;2023-12-20T08:30:00;5;;;2.1;;
61570;SDS011;47463;49.884;10.010;2023-12-20T08:35:00;5.7;;;2;;
61570;SDS011;47463;49.884;10.010;2023-12-20T08:40:00;4.8;;;1.7;;
61570;SDS011;47463;49.884;10.010;2023-12-20T08:45:00;4.9;;;2;;
61570;SDS011;47463;49.884;10.010;2023-12-20T08:50:00;4.9;;;2;;
61570;SDS011;47463;49.884;10.010;2023-12-20T08:55:00;5.6;;;1.9;;
61570;SDS011;47463;49.884;10.010;2023-12-20T09:00:00;0;;;0;;
61570;SDS011;47463;49.884;10.010;2023-12-20T09:05:00;3.4;;;1.7;;
61570;SDS011;47463;49.884;10.010;2023-12-20T09:10:00;5.2;;;1.8;;
61570;SDS011;47463;49.884;10.010;2023-12-20T09:15:00;5.2;;;1.8;;
61570;SDS011;47463;49.884;10.010;2023-12-20T09:20:00;3;;;1.6;;
61570;SDS011;47463;49.884;10.010;2023-12-20T09:25:00;5.1;;;1.8;;
61570;SDS011;47463;49.884;10.010;2023-12-20T09:30:00;5;;;1.8;;
61570;SDS011;47463;49.884;10.010;2023-12-20T09:35:00;8.1;;;2.3;;
61570;SDS011;47463;49.884;10.010;2023-12-20T09:40:00;5.9;;;1.7;;
61570;SDS011;47463;49.884;10.010;2023-12-20T09:45:00;5.9;;;1.7;;
61570;SDS011;47463;49.884;10.010;2023-12-20T09:50:00;6.9;;;2.4;;
61570;SDS011;47463;49.884;10.010;2023-12-20T09:55:00;6.1;;;1.8;;
61570;SDS011;47463;49.884;10.010;2023-12-20T10:00:00;7.9;;;2.1;;
61570;SDS011;47463;49.884;10.010;2023-12-20T10:05:00;6.1;;;1.8;;
61570;SDS011;47463;49.884;10.010;2023-12-20T10:10:00;5.7;;;1.8;;
61570;SDS011;47463;49.884;10.010;2023-12-20T10:15:00;5.7;;;1.8;;
61570;SDS011;47463;49.884;10.010;2023-12-20T10:20:00;6.7;;;1.9;;
61570;SDS011;47463;49.884;10.010;2023-12-20T10:25:00;3.6;;;2;;
61570;SDS011;47463;49.884;10.010;2023-12-20T10:30:00;5.6;;;1.9;;
61570;SDS011;47463;49.884;10.010;2023-12-20T10:35:00;8.3;;;2.1;;
61570;SDS011;47463;49.884;10.010;2023-12-20T10:40:00;6.9;;;1.7;;
61570;SDS011;47463;49.884;10.010;2023-12-20T10:45:00;6.9;;;1.7;;
61570;SDS011;47463;49.884;10.010;2023-12-20T10:50:00;6.2;;;1.8;;
61570;SDS011;47463;49.884;10.010;2023-12-20T10:55:00;6.3;;;1.9;;
61570;SDS011;47463;49.884;10.010;2023-12-20T11:00:00;7.8;;;2.3;;
61570;SDS011;47463;49.884;10.010;2023-12-20T11:05:03;10;;;2.1;;
61570;SDS011;47463;49.884;10.010;2023-12-20T11:10:00;8.6;;;3.2;;
61570;SDS011;47463;49.884;10.010;2023-12-20T11:15:00;8.6;;;3.2;;
61570;SDS011;47463;49.884;10.010;2023-12-20T11:20:07;7.6;;;2.2;;
61570;SDS011;47463;49.884;10.010;2023-12-20T11:25:02;7.4;;;2.1;;
61570;SDS011;47463;49.884;10.010;2023-12-20T11:30:00;6.6;;;1.9;;
61570;SDS011;47463;49.884;10.010;2023-12-20T11:35:00;5.9;;;2;;
61570;SDS011;47463;49.884;10.010;2023-12-20T11:40:00;8.9;;;2;;
61570;SDS011;47463;49.884;10.010;2023-12-20T11:45:01;8.9;;;2;;
61570;SDS011;47463;49.884;10.010;2023-12-20T11:50:00;6.8;;;1.9;;
61570;SDS011;47463;49.884;10.010;2023-12-20T11:55:00;5.5;;;2;;
61570;SDS011;47463;49.884;10.010;2023-12-20T12:00:00;7.6;;;2.6;;
61570;SDS011;47463;49.884;10.010;2023-12-20T12:05:00;5.7;;;2.2;;
61570;SDS011;47463;49.884;10.010;2023-12-20T12:10:00;6.8;;;2.1;;
61570;SDS011;47463;49.884;10.010;2023-12-20T12:15:00;6.8;;;2.1;;
61570;SDS011;47463;49.884;10.010;2023-12-20T12:20:02;7;;;2.5;;
61570;SDS011;47463;49.884;10.010;2023-12-20T12:25:08;3.8;;;1.8;;
61570;SDS011;47463;49.884;10.010;2023-12-20T12:30:00;6.4;;;1.8;;
61570;SDS011;47463;49.884;10.010;2023-12-20T12:35:00;6.6;;;2.8;;
61570;SDS011;47463;49.884;10.010;2023-12-20T12:40:00;7;;;2;;
61570;SDS011;47463;49.884;10.010;2023-12-20T12:45:00;7;;;2;;
61570;SDS011;47463;49.884;10.010;2023-12-20T12:50:00;8.7;;;2.6;;
61570;SDS011;47463;49.884;10.010;2023-12-20T12:55:00;6;;;2.3;;
61570;SDS011;47463;49.884;10.010;2023-12-20T13:00:00;3.8;;;2;;
61570;SDS011;47463;49.884;10.010;2023-12-20T13:05:00;4.8;;;1.9;;
61570;SDS011;47463;49.884;10.010;2023-12-20T13:10:00;7.7;;;2;;
61570;SDS011;47463;49.884;10.010;2023-12-20T13:15:00;7.7;;;2;;
61570;SDS011;47463;49.884;10.010;2023-12-20T13:20:00;6.9;;;2.2;;
61570;SDS011;47463;49.884;10.010;2023-12-20T13:25:00;5.8;;;1.8;;
61570;SDS011;47463;49.884;10.010;2023-12-20T13:30:00;3.6;;;1.7;;
61570;SDS011;47463;49.884;10.010;2023-12-20T13:35:00;4.9;;;2;;
61570;SDS011;47463;49.884;10.010;2023-12-20T13:40:00;4.7;;;2;;
61570;SDS011;47463;49.884;10.010;2023-12-20T13:45:00;4.7;;;2;;
61570;SDS011;47463;49.884;10.010;2023-12-20T13:50:00;6.5;;;2;;
61570;SDS011;47463;49.884;10.010;2023-12-20T13:55:00;5.9;;;2.5;;
61570;SDS011;47463;49.884;10.010;2023-12-20T14:00:00;8.8;;;2.6;;
61570;SDS011;47463;49.884;10.010;2023-12-20T14:05:00;6.3;;;2.4;;
61570;SDS011;47463;49.884;10.010;2023-12-20T14:10:00;7;;;2.3;;
61570;SDS011;47463;49.884;10.010;2023-12-20T14:15:00;7;;;2.3;;
61570;SDS011;47463;49.884;10.010;2023-12-20T14:20:00;7.6;;;2.3;;
61570;SDS011;47463;49.884;10.010;2023-12-20T14:25:00;5.7;;;2.3;;
61570;SDS011;47463;49.884;10.010;2023-12-20T14:30:00;7.5;;;2.3;;
61570;SDS011;47463;49.884;10.010;2023-12-20T14:35:00;6.5;;;2.3;;
61570;SDS011;47463;49.884;10.010;2023-12-20T14:40:00;8.3;;;2.9;;
61570;SDS011;47463;49.884;10.010;2023-12-20T14:45:00;8.3;;;2.9;;
61570;SDS011;47463;49.884;10.010;2023-12-20T14:50:00;11.8;;;3.1;;
61570;SDS011;47463;49.884;10.010;2023-12-20T14:55:00;8.2;;;2.7;;
61570;SDS011;47463;49.884;10.010;2023-12-20T15:00:00;6.4;;;2.8;;
61570;SDS011;47463;49.884;10.010;2023-12-20T15:05:00;5.2;;;2.8;;
61570;SDS011;47463;49.884;10.010;2023-12-20T15:10:00;6.6;;;2.5;;
61570;SDS011;47463;49.884;10.010;2023-12-20T15:15:00;6.6;;;2.5;;
61570;SDS011;47463;49.884;10.010;2023-12-20T15:20:00;8.7;;;2.7;;
61570;SDS011;47463;49.884;10.010;2023-12-20T15:25:00;5.9;;;2.3;;
61570;SDS011;47463;49.884;10.010;2023-12-20T15:30:00;6.8;;;2.9;;
61570;SDS011;47463;49.884;10.010;2023-12-20T15:35:00;8.6;;;2.9;;
61570;SDS011;47463;49.884;10.010;2023-12-20T15:40:00;6.4;;;2.9;;
61570;SDS011;47463;49.884;10.010;2023-12-20T15:45:00;6.4;;;2.9;;
61570;SDS011;47463;49.884;10.010;2023-12-20T15:50:00;8;;;2.9;;
61570;SDS011;47463;49.884;10.010;2023-12-20T15:55:00;7.9;;;2.6;;
61570;SDS011;47463;49.884;10.010;2023-12-20T16:00:00;6.9;;;2.7;;
61570;SDS011;47463;49.884;10.010;2023-12-20T16:05:00;6.4;;;2.8;;
61570;SDS011;47463;49.884;10.010;2023-12-20T16:10:00;7.4;;;2.7;;
61570;SDS011;47463;49.884;10.010;2023-12-20T16:15:00;7.4;;;2.7;;
61570;SDS011;47463;49.884;10.010;2023-12-20T16:20:00;6.7;;;2.5;;
61570;SDS011;47463;49.884;10.010;2023-12-20T16:25:00;7.5;;;2.8;;
61570;SDS011;47463;49.884;10.010;2023-12-20T16:30:00;5;;;2.8;;
61570;SDS011;47463;49.884;10.010;2023-12-20T16:35:00;6.5;;;2.7;;
61570;SDS011;47463;49.884;10.010;2023-12-20T16:40:00;5.8;;;2.7;;
61570;SDS011;47463;49.884;10.010;2023-12-20T16:45:00;5.8;;;2.7;;
61570;SDS011;47463;49.884;10.010;2023-12-20T16:50:00;8.8;;;3;;
61570;SDS011;47463;49.884;10.010;2023-12-20T16:55:00;7.1;;;3;;
61570;SDS011;47463;49.884;10.010;2023-12-20T17:00:00;9.8;;;2.6;;
61570;SDS011;47463;49.884;10.010;2023-12-20T17:05:00;6.1;;;2.3;;
61570;SDS011;47463;49.884;10.010;2023-12-20T17:10:00;7.5;;;2.4;;
61570;SDS011;47463;49.884;10.010;2023-12-20T17:15:00;7.5;;;2.4;;
61570;SDS011;47463;49.884;10.010;2023-12-20T17:20:00;7.6;;;2.4;;
61570;SDS011;47463;49.884;10.010;2023-12-20T17:25:00;7.4;;;2.6;;
61570;SDS011;47463;49.884;10.010;2023-12-20T17:30:00;9.7;;;2.4;;
61570;SDS011;47463;49.884;10.010;2023-12-20T17:35:00;6;;;2.6;;
61570;SDS011;47463;49.884;10.010;2023-12-20T17:40:00;8;;;2.7;;
61570;SDS011;47463;49.884;10.010;2023-12-20T17:45:00;8;;;2.7;;
61570;SDS011;47463;49.884;10.010;2023-12-20T17:50:00;7;;;3.1;;
61570;SDS011;47463;49.884;10.010;2023-12-20T17:55:00;9.3;;;3.2;;
61570;SDS011;47463;49.884;10.010;2023-12-20T18:00:10;5.2;;;2.7;;
61570;SDS011;47463;49.884;10.010;2023-12-20T18:05:00;8.5;;;3.2;;
61570;SDS011;47463;49.884;10.010;2023-12-20T18:10:00;8.9;;;3.6;;
61570;SDS011;47463;49.884;10.010;2023-12-20T18:15:00;8.9;;;3.6;;
61570;SDS011;47463;49.884;10.010;2023-12-20T18:20:00;7.3;;;3.4;;
61570;SDS011;47463;49.884;10.010;2023-12-20T18:25:00;7.1;;;3.1;;
61570;SDS011;47463;49.884;10.010;2023-12-20T18:30:00;7;;;3.3;;
61570;SDS011;47463;49.884;10.010;2023-12-20T18:35:00;8;;;3.1;;
61570;SDS011;47463;49.884;10.010;2023-12-20T18:40:00;8.1;;;3.7;;
61570;SDS011;47463;49.884;10.010;2023-12-20T18:45:00;8.1;;;3.7;;
61570;SDS011;47463;49.884;10.010;2023-12-20T18:50:00;12;;;3.5;;
61570;SDS011;47463;49.884;10.010;2023-12-20T18:55:00;10.2;;;3.6;;
61570;SDS011;47463;49.884;10.010;2023-12-20T19:00:00;11.7;;;4;;
61570;SDS011;47463;49.884;10.010;2023-12-20T19:05:00;7;;;3.5;;
61570;SDS011;47463;49.884;10.010;2023-12-20T19:10:00;12.4;;;4.2;;
61570;SDS011;47463;49.884;10.010;2023-12-20T19:15:00;12.4;;;4.2;;
61570;SDS011;47463;49.884;10.010;2023-12-20T19:20:00;9.5;;;4;;
61570;SDS011;47463;49.884;10.010;2023-12-20T19:25:00;9.4;;;4.2;;
61570;SDS011;47463;49.884;10.010;2023-12-20T19:30:00;12.9;;;4.5;;
61570;SDS011;47463;49.884;10.010;2023-12-20T19:35:00;8.9;;;4.5;;
61570;SDS011;47463;49.884;10.010;2023-12-20T19:40:00;8.8;;;4;;
61570;SDS011;47463;49.884;10.010;2023-12-20T19:45:00;8.8;;;4;;
61570;SDS011;47463;49.884;10.010;2023-12-20T19:50:00;12.2;;;4.8;;
61570;SDS011;47463;49.884;10.010;2023-12-20T19:55:00;10.2;;;5;;
61570;SDS011;47463;49.884;10.010;2023-12-20T20:00:00;12.1;;;4.4;;
61570;SDS011;47463;49.884;10.010;2023-12-20T20:05:00;12.6;;;4.3;;
61570;SDS011;47463;49.884;10.010;2023-12-20T20:10:00;14.5;;;4.7;;
61570;SDS011;47463;49.884;10.010;2023-12-20T20:15:00;14.5;;;4.7;;
61570;SDS011;47463;49.884;10.010;2023-12-20T20:20:00;9.6;;;4.5;;
61570;SDS011;47463;49.884;10.010;2023-12-20T20:25:00;10.8;;;4.8;;
61570;SDS011;47463;49.884;10.010;2023-12-20T20:30:00;10.6;;;4.5;;
61570;SDS011;47463;49.884;10.010;2023-12-20T20:35:00;12.7;;;5;;
61570;SDS011;47463;49.884;10.010;2023-12-20T20:40:00;12.3;;;5.2;;
61570;SDS011;47463;49.884;10.010;2023-12-20T20:45:00;12.3;;;5.2;;
61570;SDS011;47463;49.884;10.010;2023-12-20T20:50:00;9.3;;;5.1;;
61570;SDS011;47463;49.884;10.010;2023-12-20T20:55:00;9;;;4.5;;
61570;SDS011;47463;49.884;10.010;2023-12-20T21:00:00;11;;;5.1;;
61570;SDS011;47463;49.884;10.010;2023-12-20T21:05:00;11.3;;;5.5;;
61570;SDS011;47463;49.884;10.010;2023-12-20T21:10:00;13;;;5.7;;
61570;SDS011;47463;49.884;10.010;2023-12-20T21:15:00;13;;;5.7;;
61570;SDS011;47463;49.884;10.010;2023-12-20T21:20:00;14.9;;;6.6;;
61570;SDS011;47463;49.884;10.010;2023-12-20T21:25:00;16.2;;;6.5;;
61570;SDS011;47463;49.884;10.010;2023-12-20T21:30:00;16;;;6.7;;
61570;SDS011;47463;49.884;10.010;2023-12-20T21:35:00;13.4;;;6.1;;
61570;SDS011;47463;49.884;10.010;2023-12-20T21:40:00;14.8;;;6.5;;
61570;SDS011;47463;49.884;10.010;2023-12-20T21:45:00;14.8;;;6.5;;
61570;SDS011;47463;49.884;10.010;2023-12-20T21:50:00;15.5;;;6.9;;
61570;SDS011;47463;49.884;10.010;2023-12-20T21:55:00;12.4;;;6;;
61570;SDS011;47463;49.884;10.010;2023-12-20T22:00:00;14;;;6.3;;
61570;SDS011;47463;49.884;10.010;2023-12-20T22:05:00;15.9;;;6.3;;
61570;SDS011;47463;49.884;10.010;2023-12-20T22:10:00;14.4;;;6.9;;
61570;SDS011;47463;49.884;10.010;2023-12-20T22:15:00;14.4;;;6.9;;
61570;SDS011;47463;49.884;10.010;2023-12-20T22:20:00;13.5;;;6.5;;
61570;SDS011;47463;49.884;10.010;2023-12-20T22:25:00;12.7;;;6.2;;
61570;SDS011;47463;49.884;10.010;2023-12-20T22:30:00;11.2;;;5.2;;
61570;SDS011;47463;49.884;10.010;2023-12-20T22:35:00;11.4;;;6;;
61570;SDS011;47463;49.884;10.010;2023-12-20T22:40:00;12.6;;;5.8;;
61570;SDS011;47463;49.884;10.010;2023-12-20T22:45:00;12.6;;;5.8;;
61570;SDS011;47463;49.884;10.010;2023-12-20T22:50:00;10.8;;;5.3;;
61570;SDS011;47463;49.884;10.010;2023-12-20T22:55:00;8.1;;;5;;
61570;SDS011;47463;49.884;10.010;2023-12-20T23:00:00;8;;;5.1;;
61570;SDS011;47463;49.884;10.010;2023-12-20T23:05:00;6.6;;;4;;
61570;SDS011;47463;49.884;10.010;2023-12-20T23:10:00;8.6;;;4.1;;
61570;SDS011;47463;49.884;10.010;2023-12-20T23:15:00;8.6;;;4.1;;
61570;SDS011;47463;49.884;10.010;2023-12-20T23:20:00;7.1;;;3.9;;
61570;SDS011;47463;49.884;10.010;2023-12-20T23:25:00;7.2;;;3.6;;
61570;SDS011;47463;49.884;10.010;2023-12-20T23:30:00;6.7;;;3.6;;
61570;SDS011;47463;49.884;10.010;2023-12-20T23:35:00;5.2;;;3.3;;
61570;SDS011;47463;49.884;10.010;2023-12-20T23:40:00;6;;;3.4;;
61570;SDS011;47463;49.884;10.010;2023-12-20T23:45:00;6;;;3.4;;
61570;SDS011;47463;49.884;10.010;2023-12-20T23:50:00;3.9;;;3.1;;
61570;SDS011;47463;49.884;10.010;2023-12-20T23:55:00;4;;;3;;
